sensor_id;sensor_type;location;lat;lon;timestamp;pressure;altitude;pressure_sealevel;temperature;humidity
52935;BME280;38802;50.198;19.796;2023-05-17T00:01:45;95706.77;;;10.95;97.98
52935;BME280;38802;50.198;19.796;2023-05-17T00:04:13;95704.54;;;10.94;97.94
52935;BME280;38802;50.198;19.796;2023-05-17T00:06:42;95705.91;;;10.94;98.02
52935;BME280;38802;50.198;19.796;2023-05-17T00:09:10;95707.19;;;10.95;97.81
52935;BME280;38802;50.198;19.796;2023-05-17T00:11:38;95711.90;;;10.99;97.79
52935;BME280;38802;50.198;19.796;2023-05-17T00:14:06;95715.50;;;10.99;97.87
52935;BME280;38802;50.198;19.796;2023-05-17T00:16:34;95714.70;;;11.01;98.13
52935;BME280;38802;50.198;19.796;2023-05-17T00:19:02;95714.82;;;10.98;98.45
52935;BME280;38802;50.198;19.796;2023-05-17T00:21:31;95720.39;;;10.96;98.62
52935;BME280;38802;50.198;19.796;2023-05-17T00:23:59;95726.05;;;10.93;98.41
52935;BME280;38802;50.198;19.796;2023-05-17T00:26:27;95729.27;;;10.92;98.19
52935;BME280;38802;50.198;19.796;2023-05-17T00:28:56;95729.07;;;10.94;98.33
52935;BME280;38802;50.198;19.796;2023-05-17T00:31:23;95725.84;;;10.91;98.43
52935;BME280;38802;50.198;19.796;2023-05-17T00:33:51;95726.06;;;10.91;98.28
52935;BME280;38802;50.198;19.796;2023-05-17T00:36:20;95720.81;;;10.91;98.36
52935;BME280;38802;50.198;19.796;2023-05-17T00:38:48;95721.23;;;10.90;98.15
52935;BME280;38802;50.198;19.796;2023-05-17T00:41:16;95731.77;;;10.91;98.69
52935;BME280;38802;50.198;19.796;2023-05-17T00:43:45;95734.32;;;10.90;98.61
52935;BME280;38802;50.198;19.796;2023-05-17T00:46:13;95731.77;;;10.89;98.38
52935;BME280;38802;50.198;19.796;2023-05-17T00:48:43;95731.82;;;10.91;98.89
52935;BME280;38802;50.198;19.796;2023-05-17T00:51:12;95722.02;;;10.85;98.66
52935;BME280;38802;50.198;19.796;2023-05-17T00:53:41;95722.61;;;10.87;98.88
52935;BME280;38802;50.198;19.796;2023-05-17T00:56:10;95719.54;;;10.86;98.89
52935;BME280;38802;50.198;19.796;2023-05-17T00:58:38;95714.72;;;10.84;98.76
52935;BME280;38802;50.198;19.796;2023-05-17T01:01:07;95707.04;;;10.82;98.78
52935;BME280;38802;50.198;19.796;2023-05-17T01:03:36;95713.76;;;10.81;98.69
52935;BME280;38802;50.198;19.796;2023-05-17T01:06:05;95715.54;;;10.80;98.74
52935;BME280;38802;50.198;19.796;2023-05-17T01:08:35;95717.85;;;10.80;98.81
52935;BME280;38802;50.198;19.796;2023-05-17T01:16:15;95713.89;;;10.76;99.23
52935;BME280;38802;50.198;19.796;2023-05-17T01:18:51;95710.86;;;10.75;99.16
52935;BME280;38802;50.198;19.796;2023-05-17T01:29:56;95730.74;;;10.77;99.57
52935;BME280;38802;50.198;19.796;2023-05-17T01:32:26;95730.53;;;10.76;99.46
52935;BME280;38802;50.198;19.796;2023-05-17T01:34:53;95731.90;;;10.74;99.43
52935;BME280;38802;50.198;19.796;2023-05-17T01:37:20;95734.30;;;10.73;99.66
52935;BME280;38802;50.198;19.796;2023-05-17T01:39:47;95732.08;;;10.74;99.76
52935;BME280;38802;50.198;19.796;2023-05-17T01:42:21;95733.80;;;10.73;99.63
52935;BME280;38802;50.198;19.796;2023-05-17T01:45:02;95732.19;;;10.71;99.71
52935;BME280;38802;50.198;19.796;2023-05-17T01:47:49;95728.92;;;10.71;99.61
52935;BME280;38802;50.198;19.796;2023-05-17T01:50:22;95726.05;;;10.68;99.36
52935;BME280;38802;50.198;19.796;2023-05-17T01:52:52;95719.85;;;10.67;99.86
52935;BME280;38802;50.198;19.796;2023-05-17T01:57:52;95717.80;;;10.65;99.88
52935;BME280;38802;50.198;19.796;2023-05-17T02:00:19;95710.30;;;10.61;99.79
52935;BME280;38802;50.198;19.796;2023-05-17T02:02:47;95711.98;;;10.60;99.88
52935;BME280;38802;50.198;19.796;2023-05-17T02:05:14;95718.05;;;10.60;99.87
52935;BME280;38802;50.198;19.796;2023-05-17T02:07:41;95718.30;;;10.58;100.00
52935;BME280;38802;50.198;19.796;2023-05-17T02:10:08;95720.64;;;10.55;99.95
52935;BME280;38802;50.198;19.796;2023-05-17T02:12:40;95730.51;;;10.53;100.00
52935;BME280;38802;50.198;19.796;2023-05-17T02:15:07;95736.88;;;10.50;99.96
52935;BME280;38802;50.198;19.796;2023-05-17T02:17:38;95742.49;;;10.46;99.91
52935;BME280;38802;50.198;19.796;2023-05-17T02:20:07;95748.55;;;10.40;99.85
52935;BME280;38802;50.198;19.796;2023-05-17T02:22:33;95756.83;;;10.38;99.87
52935;BME280;38802;50.198;19.796;2023-05-17T02:25:01;95754.75;;;10.38;99.93
52935;BME280;38802;50.198;19.796;2023-05-17T02:27:27;95757.21;;;10.36;99.93
52935;BME280;38802;50.198;19.796;2023-05-17T02:29:54;95759.22;;;10.37;99.98
52935;BME280;38802;50.198;19.796;2023-05-17T02:32:21;95765.58;;;10.35;100.00
52935;BME280;38802;50.198;19.796;2023-05-17T02:34:48;95764.04;;;10.33;99.99
52935;BME280;38802;50.198;19.796;2023-05-17T02:37:15;95764.13;;;10.32;100.00
52935;BME280;38802;50.198;19.796;2023-05-17T02:39:43;95766.52;;;10.29;99.95
52935;BME280;38802;50.198;19.796;2023-05-17T02:42:10;95766.70;;;10.29;99.93
52935;BME280;38802;50.198;19.796;2023-05-17T02:44:36;95763.73;;;10.27;100.00
52935;BME280;38802;50.198;19.796;2023-05-17T02:47:03;95759.57;;;10.25;99.92
52935;BME280;38802;50.198;19.796;2023-05-17T02:49:30;95756.75;;;10.22;99.84
52935;BME280;38802;50.198;19.796;2023-05-17T02:51:57;95761.27;;;10.24;99.87
52935;BME280;38802;50.198;19.796;2023-05-17T02:54:24;95756.55;;;10.22;99.90
52935;BME280;38802;50.198;19.796;2023-05-17T02:56:51;95749.98;;;10.20;99.89
52935;BME280;38802;50.198;19.796;2023-05-17T02:59:17;95747.39;;;10.20;100.00
52935;BME280;38802;50.198;19.796;2023-05-17T03:01:44;95746.65;;;10.18;99.78
52935;BME280;38802;50.198;19.796;2023-05-17T03:04:11;95743.45;;;10.19;99.97
52935;BME280;38802;50.198;19.796;2023-05-17T03:06:39;95746.00;;;10.18;99.96
52935;BME280;38802;50.198;19.796;2023-05-17T03:09:06;95752.60;;;10.18;99.94
52935;BME280;38802;50.198;19.796;2023-05-17T03:11:33;95750.19;;;10.15;99.98
52935;BME280;38802;50.198;19.796;2023-05-17T03:14:02;95749.72;;;10.13;99.85
52935;BME280;38802;50.198;19.796;2023-05-17T03:16:30;95749.80;;;10.14;100.00
52935;BME280;38802;50.198;19.796;2023-05-17T03:18:57;95748.05;;;10.14;100.00
52935;BME280;38802;50.198;19.796;2023-05-17T03:21:24;95750.19;;;10.15;99.97
52935;BME280;38802;50.198;19.796;2023-05-17T03:23:51;95751.26;;;10.15;99.95
52935;BME280;38802;50.198;19.796;2023-05-17T03:26:18;95754.22;;;10.17;99.89
52935;BME280;38802;50.198;19.796;2023-05-17T03:28:48;95754.61;;;10.18;100.00
52935;BME280;38802;50.198;19.796;2023-05-17T03:31:16;95757.14;;;10.20;100.00
52935;BME280;38802;50.198;19.796;2023-05-17T03:33:44;95759.31;;;10.18;100.00
52935;BME280;38802;50.198;19.796;2023-05-17T03:36:11;95759.73;;;10.17;100.00
52935;BME280;38802;50.198;19.796;2023-05-17T03:38:38;95756.91;;;10.16;100.00
52935;BME280;38802;50.198;19.796;2023-05-17T03:41:05;95751.98;;;10.17;100.00
52935;BME280;38802;50.198;19.796;2023-05-17T03:43:32;95756.94;;;10.16;100.00
52935;BME280;38802;50.198;19.796;2023-05-17T03:46:00;95756.41;;;10.18;100.00
52935;BME280;38802;50.198;19.796;2023-05-17T03:48:28;95762.73;;;10.19;100.00
52935;BME280;38802;50.198;19.796;2023-05-17T03:50:55;95764.50;;;10.18;100.00
52935;BME280;38802;50.198;19.796;2023-05-17T03:53:21;95767.76;;;10.15;100.00
52935;BME280;38802;50.198;19.796;2023-05-17T03:55:48;95769.15;;;10.15;100.00
52935;BME280;38802;50.198;19.796;2023-05-17T03:58:16;95766.98;;;10.14;100.00
52935;BME280;38802;50.198;19.796;2023-05-17T04:00:43;95769.51;;;10.15;100.00
52935;BME280;38802;50.198;19.796;2023-05-17T04:03:12;95777.21;;;10.14;100.00
52935;BME280;38802;50.198;19.796;2023-05-17T04:05:39;95782.00;;;10.15;100.00
52935;BME280;38802;50.198;19.796;2023-05-17T04:08:07;95793.88;;;10.16;100.00
52935;BME280;38802;50.198;19.796;2023-05-17T04:10:34;95791.60;;;10.18;100.00
52935;BME280;38802;50.198;19.796;2023-05-17T04:13:03;95789.39;;;10.18;100.00
52935;BME280;38802;50.198;19.796;2023-05-17T04:15:29;95800.62;;;10.18;100.00
52935;BME280;38802;50.198;19.796;2023-05-17T04:17:58;95808.18;;;10.17;100.00
52935;BME280;38802;50.198;19.796;2023-05-17T04:20:24;95813.80;;;10.18;100.00
52935;BME280;38802;50.198;19.796;2023-05-17T04:22:51;95817.70;;;10.18;100.00
52935;BME280;38802;50.198;19.796;2023-05-17T04:25:18;95815.48;;;10.19;100.00
52935;BME280;38802;50.198;19.796;2023-05-17T04:27:45;95816.92;;;10.21;100.00
52935;BME280;38802;50.198;19.796;2023-05-17T04:30:13;95814.85;;;10.18;100.00
52935;BME280;38802;50.198;19.796;2023-05-17T04:32:39;95818.27;;;10.19;100.00
52935;BME280;38802;50.198;19.796;2023-05-17T04:35:08;95824.49;;;10.17;100.00
52935;BME280;38802;50.198;19.796;2023-05-17T04:37:35;95824.46;;;10.18;100.00
52935;BME280;38802;50.198;19.796;2023-05-17T04:40:09;95829.23;;;10.19;100.00
52935;BME280;38802;50.198;19.796;2023-05-17T04:42:36;95830.34;;;10.20;100.00
52935;BME280;38802;50.198;19.796;2023-05-17T04:45:03;95833.68;;;10.21;100.00
52935;BME280;38802;50.198;19.796;2023-05-17T04:47:31;95833.86;;;10.19;100.00
52935;BME280;38802;50.198;19.796;2023-05-17T04:49:58;95837.21;;;10.19;100.00
52935;BME280;38802;50.198;19.796;2023-05-17T04:52:24;95841.73;;;10.21;100.00
52935;BME280;38802;50.198;19.796;2023-05-17T04:54:51;95838.95;;;10.19;100.00
52935;BME280;38802;50.198;19.796;2023-05-17T04:57:19;95848.45;;;10.21;100.00
52935;BME280;38802;50.198;19.796;2023-05-17T04:59:56;95856.44;;;10.21;100.00
52935;BME280;38802;50.198;19.796;2023-05-17T05:02:23;95868.32;;;10.18;100.00
52935;BME280;38802;50.198;19.796;2023-05-17T05:04:50;95870.27;;;10.18;100.00
52935;BME280;38802;50.198;19.796;2023-05-17T05:07:17;95872.43;;;10.17;100.00
52935;BME280;38802;50.198;19.796;2023-05-17T05:09:45;95866.39;;;10.19;100.00
52935;BME280;38802;50.198;19.796;2023-05-17T05:12:12;95856.77;;;10.17;100.00
52935;BME280;38802;50.198;19.796;2023-05-17T05:14:41;95843.75;;;10.19;100.00
52935;BME280;38802;50.198;19.796;2023-05-17T05:17:08;95832.92;;;10.20;100.00
52935;BME280;38802;50.198;19.796;2023-05-17T05:19:35;95829.63;;;10.20;100.00
52935;BME280;38802;50.198;19.796;2023-05-17T05:22:02;95825.29;;;10.20;100.00
52935;BME280;38802;50.198;19.796;2023-05-17T05:24:29;95831.50;;;10.23;100.00
52935;BME280;38802;50.198;19.796;2023-05-17T05:26:56;95828.79;;;10.22;100.00
52935;BME280;38802;50.198;19.796;2023-05-17T05:29:24;95823.77;;;10.24;100.00
52935;BME280;38802;50.198;19.796;2023-05-17T05:31:50;95827.63;;;10.25;100.00
52935;BME280;38802;50.198;19.796;2023-05-17T05:34:17;95837.05;;;10.27;100.00
52935;BME280;38802;50.198;19.796;2023-05-17T05:36:44;95843.02;;;10.30;100.00
52935;BME280;38802;50.198;19.796;2023-05-17T05:39:11;95845.13;;;10.29;100.00
52935;BME280;38802;50.198;19.796;2023-05-17T05:41:38;95851.71;;;10.29;100.00
52935;BME280;38802;50.198;19.796;2023-05-17T05:44:05;95852.70;;;10.30;100.00
52935;BME280;38802;50.198;19.796;2023-05-17T05:46:31;95852.79;;;10.31;100.00
52935;BME280;38802;50.198;19.796;2023-05-17T05:48:59;95857.52;;;10.34;100.00
52935;BME280;38802;50.198;19.796;2023-05-17T05:51:26;95859.85;;;10.38;100.00
52935;BME280;38802;50.198;19.796;2023-05-17T05:53:53;95855.14;;;10.43;100.00
52935;BME280;38802;50.198;19.796;2023-05-17T05:56:20;95857.98;;;10.42;100.00
52935;BME280;38802;50.198;19.796;2023-05-17T05:58:47;95861.54;;;10.41;100.00
52935;BME280;38802;50.198;19.796;2023-05-17T06:01:13;95864.77;;;10.42;100.00
52935;BME280;38802;50.198;19.796;2023-05-17T06:03:40;95864.65;;;10.43;100.00
52935;BME280;38802;50.198;19.796;2023-05-17T06:06:09;95861.91;;;10.45;100.00
52935;BME280;38802;50.198;19.796;2023-05-17T06:08:36;95862.61;;;10.48;100.00
52935;BME280;38802;50.198;19.796;2023-05-17T06:11:03;95863.50;;;10.48;100.00
52935;BME280;38802;50.198;19.796;2023-05-17T06:13:30;95869.35;;;10.49;100.00
52935;BME280;38802;50.198;19.796;2023-05-17T06:15:56;95872.17;;;10.50;100.00
52935;BME280;38802;50.198;19.796;2023-05-17T06:18:24;95875.93;;;10.53;100.00
52935;BME280;38802;50.198;19.796;2023-05-17T06:20:51;95882.36;;;10.55;100.00
52935;BME280;38802;50.198;19.796;2023-05-17T06:23:18;95887.03;;;10.57;100.00
52935;BME280;38802;50.198;19.796;2023-05-17T06:25:44;95887.57;;;10.57;100.00
52935;BME280;38802;50.198;19.796;2023-05-17T06:28:11;95891.05;;;10.57;100.00
52935;BME280;38802;50.198;19.796;2023-05-17T06:30:38;95895.89;;;10.59;100.00
52935;BME280;38802;50.198;19.796;2023-05-17T06:33:04;95900.13;;;10.56;100.00
52935;BME280;38802;50.198;19.796;2023-05-17T06:35:31;95906.58;;;10.56;100.00
52935;BME280;38802;50.198;19.796;2023-05-17T06:38:18;95913.71;;;10.56;100.00
52935;BME280;38802;50.198;19.796;2023-05-17T06:40:44;95916.20;;;10.57;100.00
52935;BME280;38802;50.198;19.796;2023-05-17T06:43:11;95920.84;;;10.56;100.00
52935;BME280;38802;50.198;19.796;2023-05-17T06:45:37;95932.32;;;10.53;100.00
52935;BME280;38802;50.198;19.796;2023-05-17T06:48:05;95932.93;;;10.55;100.00
52935;BME280;38802;50.198;19.796;2023-05-17T06:50:32;95930.38;;;10.52;100.00
52935;BME280;38802;50.198;19.796;2023-05-17T06:52:59;95931.77;;;10.50;100.00
52935;BME280;38802;50.198;19.796;2023-05-17T06:55:26;95933.99;;;10.50;100.00
52935;BME280;38802;50.198;19.796;2023-05-17T06:57:55;95937.44;;;10.49;100.00
52935;BME280;38802;50.198;19.796;2023-05-17T07:00:22;95930.38;;;10.50;100.00
52935;BME280;38802;50.198;19.796;2023-05-17T07:02:48;95928.20;;;10.51;100.00
52935;BME280;38802;50.198;19.796;2023-05-17T07:05:15;95924.98;;;10.52;100.00
52935;BME280;38802;50.198;19.796;2023-05-17T07:07:42;95917.98;;;10.53;100.00
52935;BME280;38802;50.198;19.796;2023-05-17T07:10:09;95919.38;;;10.49;100.00
52935;BME280;38802;50.198;19.796;2023-05-17T07:12:35;95923.56;;;10.48;100.00
52935;BME280;38802;50.198;19.796;2023-05-17T07:15:02;95924.74;;;10.49;100.00
52935;BME280;38802;50.198;19.796;2023-05-17T07:17:29;95929.33;;;10.48;100.00
52935;BME280;38802;50.198;19.796;2023-05-17T07:19:56;95933.05;;;10.49;100.00
52935;BME280;38802;50.198;19.796;2023-05-17T07:22:23;95935.84;;;10.47;100.00
52935;BME280;38802;50.198;19.796;2023-05-17T07:24:50;95942.48;;;10.47;100.00
52935;BME280;38802;50.198;19.796;2023-05-17T07:27:18;95945.80;;;10.46;100.00
52935;BME280;38802;50.198;19.796;2023-05-17T07:29:44;95950.77;;;10.47;100.00
52935;BME280;38802;50.198;19.796;2023-05-17T07:32:11;95957.45;;;10.48;100.00
52935;BME280;38802;50.198;19.796;2023-05-17T07:34:38;95962.95;;;10.51;100.00
52935;BME280;38802;50.198;19.796;2023-05-17T07:37:04;95961.14;;;10.50;100.00
52935;BME280;38802;50.198;19.796;2023-05-17T07:39:32;95963.47;;;10.49;100.00
52935;BME280;38802;50.198;19.796;2023-05-17T07:41:59;95971.58;;;10.46;100.00
52935;BME280;38802;50.198;19.796;2023-05-17T07:44:26;95972.23;;;10.46;100.00
52935;BME280;38802;50.198;19.796;2023-05-17T07:46:55;95979.45;;;10.47;100.00
52935;BME280;38802;50.198;19.796;2023-05-17T07:49:22;95985.95;;;10.46;100.00
52935;BME280;38802;50.198;19.796;2023-05-17T07:51:49;95992.36;;;10.46;100.00
52935;BME280;38802;50.198;19.796;2023-05-17T07:54:24;95989.88;;;10.49;100.00
52935;BME280;38802;50.198;19.796;2023-05-17T07:56:54;95996.59;;;10.48;100.00
52935;BME280;38802;50.198;19.796;2023-05-17T07:59:21;96000.17;;;10.46;100.00
52935;BME280;38802;50.198;19.796;2023-05-17T08:01:48;96002.83;;;10.46;100.00
52935;BME280;38802;50.198;19.796;2023-05-17T08:04:15;95999.59;;;10.43;100.00
52935;BME280;38802;50.198;19.796;2023-05-17T08:06:42;96010.09;;;10.42;100.00
52935;BME280;38802;50.198;19.796;2023-05-17T08:09:11;96012.41;;;10.41;100.00
52935;BME280;38802;50.198;19.796;2023-05-17T08:11:38;96011.96;;;10.38;100.00
52935;BME280;38802;50.198;19.796;2023-05-17T08:14:15;96003.17;;;10.39;100.00
52935;BME280;38802;50.198;19.796;2023-05-17T08:16:43;96009.58;;;10.39;100.00
52935;BME280;38802;50.198;19.796;2023-05-17T08:19:11;96011.45;;;10.40;100.00
52935;BME280;38802;50.198;19.796;2023-05-17T08:21:42;96015.55;;;10.36;100.00
52935;BME280;38802;50.198;19.796;2023-05-17T08:24:09;96012.16;;;10.33;100.00
52935;BME280;38802;50.198;19.796;2023-05-17T08:26:37;96015.07;;;10.34;100.00
52935;BME280;38802;50.198;19.796;2023-05-17T08:29:04;96011.80;;;10.32;100.00
52935;BME280;38802;50.198;19.796;2023-05-17T08:31:31;96017.18;;;10.28;100.00
52935;BME280;38802;50.198;19.796;2023-05-17T08:33:58;96019.27;;;10.28;100.00
52935;BME280;38802;50.198;19.796;2023-05-17T08:36:25;96023.58;;;10.26;100.00
52935;BME280;38802;50.198;19.796;2023-05-17T08:38:52;96026.66;;;10.26;100.00
52935;BME280;38802;50.198;19.796;2023-05-17T08:41:19;96029.92;;;10.27;100.00
52935;BME280;38802;50.198;19.796;2023-05-17T08:43:47;96032.42;;;10.28;100.00
52935;BME280;38802;50.198;19.796;2023-05-17T08:46:15;96032.12;;;10.28;100.00
52935;BME280;38802;50.198;19.796;2023-05-17T08:48:45;96026.95;;;10.25;100.00
52935;BME280;38802;50.198;19.796;2023-05-17T08:51:13;96027.74;;;10.22;100.00
52935;BME280;38802;50.198;19.796;2023-05-17T08:53:40;96028.09;;;10.18;100.00
52935;BME280;38802;50.198;19.796;2023-05-17T08:56:08;96027.45;;;10.17;100.00
52935;BME280;38802;50.198;19.796;2023-05-17T08:58:38;96031.46;;;10.13;100.00
52935;BME280;38802;50.198;19.796;2023-05-17T09:01:23;96035.57;;;10.07;100.00
52935;BME280;38802;50.198;19.796;2023-05-17T09:03:53;96040.06;;;10.01;100.00
52935;BME280;38802;50.198;19.796;2023-05-17T09:06:24;96043.35;;;9.99;100.00
52935;BME280;38802;50.198;19.796;2023-05-17T09:08:52;96044.98;;;9.98;100.00
52935;BME280;38802;50.198;19.796;2023-05-17T09:11:38;96051.61;;;9.95;100.00
52935;BME280;38802;50.198;19.796;2023-05-17T09:14:05;96057.13;;;9.94;100.00
52935;BME280;38802;50.198;19.796;2023-05-17T09:16:34;96063.02;;;9.88;100.00
52935;BME280;38802;50.198;19.796;2023-05-17T09:19:03;96063.67;;;9.82;100.00
52935;BME280;38802;50.198;19.796;2023-05-17T09:21:31;96067.72;;;9.75;100.00
52935;BME280;38802;50.198;19.796;2023-05-17T09:23:58;96073.28;;;9.72;100.00
52935;BME280;38802;50.198;19.796;2023-05-17T09:26:42;96079.70;;;9.72;100.00
52935;BME280;38802;50.198;19.796;2023-05-17T09:29:11;96076.55;;;9.66;100.00
52935;BME280;38802;50.198;19.796;2023-05-17T09:31:41;96076.89;;;9.64;100.00
52935;BME280;38802;50.198;19.796;2023-05-17T09:34:09;96078.52;;;9.55;100.00
52935;BME280;38802;50.198;19.796;2023-05-17T09:36:37;96080.98;;;9.50;100.00
52935;BME280;38802;50.198;19.796;2023-05-17T09:39:07;96080.24;;;9.51;100.00
52935;BME280;38802;50.198;19.796;2023-05-17T09:41:43;96082.85;;;9.42;100.00
52935;BME280;38802;50.198;19.796;2023-05-17T09:44:11;96082.13;;;9.32;100.00
52935;BME280;38802;50.198;19.796;2023-05-17T09:46:44;96084.61;;;9.31;100.00
52935;BME280;38802;50.198;19.796;2023-05-17T09:49:11;96091.27;;;9.34;100.00
52935;BME280;38802;50.198;19.796;2023-05-17T09:51:40;96088.73;;;9.29;100.00
52935;BME280;38802;50.198;19.796;2023-05-17T09:54:10;96095.76;;;9.28;100.00
52935;BME280;38802;50.198;19.796;2023-05-17T09:56:38;96098.72;;;9.26;100.00
52935;BME280;38802;50.198;19.796;2023-05-17T09:59:12;96101.86;;;9.23;100.00
52935;BME280;38802;50.198;19.796;2023-05-17T10:01:41;96106.53;;;9.17;100.00
52935;BME280;38802;50.198;19.796;2023-05-17T10:04:09;96113.13;;;9.17;100.00
52935;BME280;38802;50.198;19.796;2023-05-17T10:06:41;96113.27;;;9.17;100.00
52935;BME280;38802;50.198;19.796;2023-05-17T10:09:20;96114.71;;;9.14;100.00
52935;BME280;38802;50.198;19.796;2023-05-17T10:11:48;96117.46;;;9.12;100.00
52935;BME280;38802;50.198;19.796;2023-05-17T10:14:29;96122.61;;;9.13;100.00
52935;BME280;38802;50.198;19.796;2023-05-17T10:17:00;96117.38;;;9.22;100.00
52935;BME280;38802;50.198;19.796;2023-05-17T10:19:28;96123.91;;;9.19;100.00
52935;BME280;38802;50.198;19.796;2023-05-17T10:21:56;96130.92;;;9.18;100.00
52935;BME280;38802;50.198;19.796;2023-05-17T10:24:44;96133.32;;;9.16;100.00
52935;BME280;38802;50.198;19.796;2023-05-17T10:27:14;96136.30;;;9.16;100.00
52935;BME280;38802;50.198;19.796;2023-05-17T10:29:42;96138.36;;;9.20;100.00
52935;BME280;38802;50.198;19.796;2023-05-17T10:32:12;96144.91;;;9.18;100.00
52935;BME280;38802;50.198;19.796;2023-05-17T10:34:39;96138.16;;;9.23;100.00
52935;BME280;38802;50.198;19.796;2023-05-17T10:37:08;96137.05;;;9.25;100.00
52935;BME280;38802;50.198;19.796;2023-05-17T10:39:35;96142.28;;;9.25;100.00
52935;BME280;38802;50.198;19.796;2023-05-17T10:42:06;96142.42;;;9.28;100.00
52935;BME280;38802;50.198;19.796;2023-05-17T10:44:41;96139.13;;;9.30;100.00
52935;BME280;38802;50.198;19.796;2023-05-17T10:47:09;96138.30;;;9.32;100.00
52935;BME280;38802;50.198;19.796;2023-05-17T10:49:37;96136.33;;;9.30;100.00
52935;BME280;38802;50.198;19.796;2023-05-17T10:52:12;96132.33;;;9.30;100.00
52935;BME280;38802;50.198;19.796;2023-05-17T10:54:42;96135.50;;;9.36;100.00
52935;BME280;38802;50.198;19.796;2023-05-17T10:57:18;96130.24;;;9.37;100.00
52935;BME280;38802;50.198;19.796;2023-05-17T10:59:58;96131.02;;;9.38;100.00
52935;BME280;38802;50.198;19.796;2023-05-17T11:02:26;96140.58;;;9.38;100.00
52935;BME280;38802;50.198;19.796;2023-05-17T11:04:54;96143.33;;;9.34;100.00
52935;BME280;38802;50.198;19.796;2023-05-17T11:07:22;96150.85;;;9.31;100.00
52935;BME280;38802;50.198;19.796;2023-05-17T11:12:31;96151.47;;;9.32;100.00
52935;BME280;38802;50.198;19.796;2023-05-17T11:25:36;96163.55;;;9.28;100.00
52935;BME280;38802;50.198;19.796;2023-05-17T11:28:21;96167.61;;;9.29;100.00
52935;BME280;38802;50.198;19.796;2023-05-17T11:30:48;96167.95;;;9.27;100.00
52935;BME280;38802;50.198;19.796;2023-05-17T11:33:19;96166.40;;;9.25;100.00
52935;BME280;38802;50.198;19.796;2023-05-17T11:36:13;96168.20;;;9.20;100.00
52935;BME280;38802;50.198;19.796;2023-05-17T11:38:40;96162.23;;;9.21;100.00
52935;BME280;38802;50.198;19.796;2023-05-17T11:41:21;96160.80;;;9.17;100.00
52935;BME280;38802;50.198;19.796;2023-05-17T11:43:50;96157.95;;;9.16;100.00
52935;BME280;38802;50.198;19.796;2023-05-17T11:46:20;96168.10;;;9.12;100.00
52935;BME280;38802;50.198;19.796;2023-05-17T11:48:49;96166.12;;;9.13;100.00
52935;BME280;38802;50.198;19.796;2023-05-17T11:51:18;96176.64;;;9.11;100.00
52935;BME280;38802;50.198;19.796;2023-05-17T11:53:47;96174.86;;;9.07;100.00
52935;BME280;38802;50.198;19.796;2023-05-17T11:56:15;96174.20;;;9.07;100.00
52935;BME280;38802;50.198;19.796;2023-05-17T11:58:42;96181.52;;;9.10;100.00
52935;BME280;38802;50.198;19.796;2023-05-17T12:01:09;96182.38;;;9.08;100.00
52935;BME280;38802;50.198;19.796;2023-05-17T12:03:36;96188.08;;;9.11;100.00
52935;BME280;38802;50.198;19.796;2023-05-17T12:06:07;96192.98;;;9.10;100.00
52935;BME280;38802;50.198;19.796;2023-05-17T12:08:42;96196.62;;;9.10;100.00
52935;BME280;38802;50.198;19.796;2023-05-17T12:11:14;96195.82;;;9.03;100.00
52935;BME280;38802;50.198;19.796;2023-05-17T12:13:42;96198.75;;;9.05;100.00
52935;BME280;38802;50.198;19.796;2023-05-17T12:16:13;96205.30;;;9.01;100.00
52935;BME280;38802;50.198;19.796;2023-05-17T12:18:48;96206.86;;;8.99;100.00
52935;BME280;38802;50.198;19.796;2023-05-17T12:21:16;96211.28;;;8.98;100.00
52935;BME280;38802;50.198;19.796;2023-05-17T12:23:45;96212.22;;;8.97;100.00
52935;BME280;38802;50.198;19.796;2023-05-17T12:26:18;96213.33;;;8.96;100.00
52935;BME280;38802;50.198;19.796;2023-05-17T12:28:57;96216.19;;;8.90;100.00
52935;BME280;38802;50.198;19.796;2023-05-17T12:31:35;96214.98;;;8.79;100.00
52935;BME280;38802;50.198;19.796;2023-05-17T12:34:07;96216.31;;;8.70;100.00
52935;BME280;38802;50.198;19.796;2023-05-17T12:36:35;96214.36;;;8.59;100.00
52935;BME280;38802;50.198;19.796;2023-05-17T12:39:03;96220.16;;;8.54;100.00
52935;BME280;38802;50.198;19.796;2023-05-17T12:41:31;96221.89;;;8.46;100.00
52935;BME280;38802;50.198;19.796;2023-05-17T12:43:58;96222.09;;;8.46;100.00
52935;BME280;38802;50.198;19.796;2023-05-17T12:46:41;96219.63;;;8.40;100.00
52935;BME280;38802;50.198;19.796;2023-05-17T12:49:09;96217.66;;;8.31;100.00
52935;BME280;38802;50.198;19.796;2023-05-17T12:51:44;96215.31;;;8.30;100.00
52935;BME280;38802;50.198;19.796;2023-05-17T12:54:13;96224.32;;;8.25;100.00
52935;BME280;38802;50.198;19.796;2023-05-17T12:56:41;96228.67;;;8.25;100.00
52935;BME280;38802;50.198;19.796;2023-05-17T12:59:16;96234.02;;;8.20;100.00
52935;BME280;38802;50.198;19.796;2023-05-17T13:01:45;96238.02;;;8.13;100.00
52935;BME280;38802;50.198;19.796;2023-05-17T13:04:14;96245.39;;;8.04;100.00
52935;BME280;38802;50.198;19.796;2023-05-17T13:06:52;96248.27;;;7.98;100.00
52935;BME280;38802;50.198;19.796;2023-05-17T13:09:21;96251.85;;;7.94;100.00
52935;BME280;38802;50.198;19.796;2023-05-17T13:12:09;96252.05;;;7.96;100.00
52935;BME280;38802;50.198;19.796;2023-05-17T13:17:17;96257.30;;;7.80;100.00
52935;BME280;38802;50.198;19.796;2023-05-17T13:19:46;96257.79;;;7.81;100.00
52935;BME280;38802;50.198;19.796;2023-05-17T13:22:13;96259.28;;;7.76;100.00
52935;BME280;38802;50.198;19.796;2023-05-17T13:24:41;96256.45;;;7.77;100.00
52935;BME280;38802;50.198;19.796;2023-05-17T13:27:09;96259.61;;;7.82;100.00